»·PEaware :: N378SM L35-CL46

N378SM :: L35-CL46

FLIGHT INFORMATION

Flight Status: Arrived
Operator: Privately registered:
United States
More flights under this callsign
Pilot: Scott McKillop (2435)
Aircraft: CESSNA 172 SKYHAWK
(C172)
More flights by this aircraft type
Origin: L35 Big Bear City
United States
Destination: CL46 Quail Lake Sky Park
Canada
More flights between these airports :: More routes between these airports
Route:
File this flight plan on PilotEdge
Remarks:
Altitude:
(Current/Filed)
8,500ft
Speed:
(Current/Filed)
110kts
Departed: 30-Jul-17 12:17 PM
Arrived: 30-Jul-17 01:23 PM
Distance/Time
Traveled:
98nm/1:06
Distance/Time
To Go:
Arrived

Flight Plot

Page will automatically refresh every two minutes.

Flight plan parsing failed; only flown route is shown


Map Options




Map Legend


Flown Route
Filed Route
Departure Airport
Arrival Airport
Navaid (VOR, NDB)
Fix

Horizontal Profiles

Position Reports

Time Latitude Longitude Heading Altitude Ground
Speed
30-Jul-17 12:00 34.262857 -116.853985 0 6754ft 0kts
30-Jul-17 12:01 34.262857 -116.853985 0 6754ft 0kts
30-Jul-17 12:02 34.262857 -116.853985 0 6754ft 0kts
30-Jul-17 12:03 34.262857 -116.853985 0 6754ft 0kts
30-Jul-17 12:04 34.262857 -116.853985 0 6754ft 0kts
30-Jul-17 12:05 34.262857 -116.853985 0 6754ft 0kts
30-Jul-17 12:06 34.262857 -116.853985 0 6754ft 0kts
30-Jul-17 12:07 34.262857 -116.853985 0 6754ft 0kts
30-Jul-17 12:08 34.262857 -116.853985 0 6754ft 0kts
30-Jul-17 12:09 34.262857 -116.853985 0 6754ft 0kts
30-Jul-17 12:10 34.262857 -116.853985 0 6754ft 0kts
30-Jul-17 12:11 34.262857 -116.853985 0 6754ft 0kts
30-Jul-17 12:12 34.262857 -116.853985 0 6754ft 0kts
30-Jul-17 12:13 34.262857 -116.853985 0 6754ft 0kts
30-Jul-17 12:14 34.262857 -116.853985 0 6754ft 0kts
30-Jul-17 12:15 34.263384 -116.853878 293 6754ft 5kts
30-Jul-17 12:16 34.263381 -116.857707 269 6754ft 13kts
30-Jul-17 12:17 34.263364 -116.862259 270 6754ft 13kts
30-Jul-17 12:18 34.263480 -116.865825 354 6754ft 0kts
30-Jul-17 12:19 34.263480 -116.865825 354 6754ft 0kts
30-Jul-17 12:20 34.263914 -116.863661 90 6754ft 43kts
30-Jul-17 12:21 34.263966 -116.837173 85 7217ft 85kts
30-Jul-17 12:22 34.248755 -116.822593 191 7836ft 100kts
30-Jul-17 12:23 34.242836 -116.854960 273 8132ft 104kts
30-Jul-17 12:24 34.242362 -116.890029 270 8616ft 105kts
30-Jul-17 12:25 34.241856 -116.925197 265 9068ft 107kts
30-Jul-17 12:26 34.237991 -116.960374 261 9500ft 108kts
30-Jul-17 12:27 34.233144 -116.996016 262 9916ft 108kts
30-Jul-17 12:28 34.230381 -117.031611 280 10312ft 107kts
30-Jul-17 12:29 34.235475 -117.067384 282 10503ft 112kts
30-Jul-17 12:30 34.242944 -117.103371 287 10492ft 111kts
30-Jul-17 12:31 34.252385 -117.138475 289 10476ft 111kts
30-Jul-17 12:32 34.261940 -117.173575 289 10459ft 111kts
30-Jul-17 12:33 34.272131 -117.208620 291 10442ft 111kts
30-Jul-17 12:34 34.278347 -117.244518 276 10419ft 111kts
30-Jul-17 12:35 34.281477 -117.280871 278 10393ft 111kts
30-Jul-17 12:36 34.282731 -117.317943 263 10372ft 111kts
30-Jul-17 12:37 34.279945 -117.355085 266 10354ft 111kts
30-Jul-17 12:38 34.283704 -117.390792 278 10413ft 107kts
30-Jul-17 12:39 34.299940 -117.418748 316 10479ft 103kts
30-Jul-17 12:40 34.323822 -117.436760 329 10440ft 109kts
30-Jul-17 12:41 34.346970 -117.458612 315 10479ft 107kts
30-Jul-17 12:42 34.366403 -117.485364 314 10483ft 108kts
30-Jul-17 12:43 34.384121 -117.514190 312 10483ft 108kts
30-Jul-17 12:44 34.403913 -117.541038 314 10483ft 108kts
30-Jul-17 12:45 34.422772 -117.568685 311 10498ft 108kts
30-Jul-17 12:46 34.441242 -117.597016 311 10525ft 108kts
30-Jul-17 12:47 34.459033 -117.625965 303 10550ft 108kts
30-Jul-17 12:48 34.470925 -117.653251 291 10578ft 107kts
30-Jul-17 12:49 34.480691 -117.688349 293 10063ft 130kts
30-Jul-17 12:50 34.493877 -117.724599 295 9503ft 118kts
30-Jul-17 12:51 34.507177 -117.759421 286 8834ft 118kts
30-Jul-17 12:52 34.515176 -117.793246 284 8409ft 107kts
30-Jul-17 12:53 34.522646 -117.827283 285 8390ft 106kts
30-Jul-17 12:54 34.529715 -117.859731 285 8376ft 106kts
30-Jul-17 12:55 34.537399 -117.893680 280 8355ft 106kts
30-Jul-17 12:56 34.539021 -117.928613 284 8328ft 106kts
30-Jul-17 12:57 34.540901 -117.963703 278 8317ft 105kts
30-Jul-17 12:58 34.550567 -117.994279 297 8487ft 100kts
30-Jul-17 12:59 34.564461 -118.023838 302 8596ft 104kts
30-Jul-17 13:00 34.579731 -118.052391 300 8646ft 104kts
30-Jul-17 13:01 34.593004 -118.083230 296 8689ft 105kts
30-Jul-17 13:02 34.606424 -118.114599 297 8720ft 106kts
30-Jul-17 13:03 34.619924 -118.145407 301 8747ft 106kts
30-Jul-17 13:04 34.633517 -118.176657 297 8765ft 107kts
30-Jul-17 13:05 34.644865 -118.209178 286 8790ft 107kts
30-Jul-17 13:06 34.654844 -118.243478 293 8756ft 110kts
30-Jul-17 13:07 34.667634 -118.277773 296 8665ft 114kts
30-Jul-17 13:08 34.681322 -118.310940 297 8654ft 111kts
30-Jul-17 13:09 34.695866 -118.344190 301 8401ft 114kts
30-Jul-17 13:10 34.713031 -118.375464 302 8033ft 114kts
30-Jul-17 13:11 34.725490 -118.409919 297 7679ft 112kts
30-Jul-17 13:12 34.734752 -118.445183 279 7333ft 112kts
30-Jul-17 13:13 34.740483 -118.481744 288 6993ft 111kts
30-Jul-17 13:14 34.746090 -118.517530 270 6671ft 111kts
30-Jul-17 13:15 34.745104 -118.554975 265 6352ft 111kts
30-Jul-17 13:16 34.742053 -118.587115 269 6098ft 110kts
30-Jul-17 13:17 34.741256 -118.623978 271 5789ft 111kts
30-Jul-17 13:18 34.741611 -118.653364 274 5602ft 108kts
30-Jul-17 13:19 34.740610 -118.687974 263 5565ft 105kts
30-Jul-17 13:20 34.731719 -118.721767 266 5527ft 102kts
30-Jul-17 13:21 34.732120 -118.754786 319 5426ft 95kts
30-Jul-17 13:22 34.753838 -118.749365 79 5061ft 95kts
30-Jul-17 13:23 34.752329 -118.720545 92 4813ft 83kts
30-Jul-17 13:24 34.756430 -118.698028 347 4196ft 77kts
30-Jul-17 13:25 34.765822 -118.718034 287 3617ft 71kts
30-Jul-17 13:26 34.768343 -118.736427 281 3373ft 20kts
30-Jul-17 13:27 34.767983 -118.736177 98 3373ft 7kts
30-Jul-17 13:28 34.767637 -118.734204 69 3373ft 0kts
30-Jul-17 13:29 34.767637 -118.734204 69 3373ft 0kts

Navigation Log

Ident Type
Flight plan parsing failed, navigation log unavailable